sensor_id;sensor_type;location;lat;lon;timestamp;P1;durP1;ratioP1;P2;durP2;ratioP2
66087;SDS011;52872;52.994;6.940;2023-02-15T00:01:50;30.00;;;23.58;;
66087;SDS011;52872;52.994;6.940;2023-02-15T00:04:19;33.05;;;23.90;;
66087;SDS011;52872;52.994;6.940;2023-02-15T00:06:48;30.10;;;23.52;;
66087;SDS011;52872;52.994;6.940;2023-02-15T00:09:15;29.08;;;22.27;;
66087;SDS011;52872;52.994;6.940;2023-02-15T00:11:43;28.70;;;23.15;;
66087;SDS011;52872;52.994;6.940;2023-02-15T00:14:17;26.33;;;21.33;;
66087;SDS011;52872;52.994;6.940;2023-02-15T00:16:49;26.30;;;21.35;;
66087;SDS011;52872;52.994;6.940;2023-02-15T00:19:18;26.40;;;21.00;;
66087;SDS011;52872;52.994;6.940;2023-02-15T00:21:46;24.80;;;20.35;;
66087;SDS011;52872;52.994;6.940;2023-02-15T00:24:15;24.65;;;20.27;;
66087;SDS011;52872;52.994;6.940;2023-02-15T00:26:43;23.17;;;19.58;;
66087;SDS011;52872;52.994;6.940;2023-02-15T00:29:12;22.52;;;18.98;;
66087;SDS011;52872;52.994;6.940;2023-02-15T00:31:40;21.17;;;18.77;;
66087;SDS011;52872;52.994;6.940;2023-02-15T00:36:42;21.13;;;18.58;;
66087;SDS011;52872;52.994;6.940;2023-02-15T00:39:09;21.27;;;18.98;;
66087;SDS011;52872;52.994;6.940;2023-02-15T00:41:37;21.10;;;18.17;;
66087;SDS011;52872;52.994;6.940;2023-02-15T00:44:05;19.30;;;17.20;;
66087;SDS011;52872;52.994;6.940;2023-02-15T00:46:32;21.02;;;18.80;;
66087;SDS011;52872;52.994;6.940;2023-02-15T00:48:59;21.20;;;19.00;;
66087;SDS011;52872;52.994;6.940;2023-02-15T00:51:26;21.08;;;18.83;;
66087;SDS011;52872;52.994;6.940;2023-02-15T00:53:53;22.20;;;19.20;;
66087;SDS011;52872;52.994;6.940;2023-02-15T00:56:21;24.30;;;20.00;;
66087;SDS011;52872;52.994;6.940;2023-02-15T00:58:48;24.20;;;19.05;;
66087;SDS011;52872;52.994;6.940;2023-02-15T01:01:16;22.73;;;19.42;;
66087;SDS011;52872;52.994;6.940;2023-02-15T01:03:44;22.05;;;19.00;;
66087;SDS011;52872;52.994;6.940;2023-02-15T01:06:13;24.00;;;19.20;;
66087;SDS011;52872;52.994;6.940;2023-02-15T01:08:43;21.27;;;17.77;;
66087;SDS011;52872;52.994;6.940;2023-02-15T01:11:16;20.20;;;17.95;;
66087;SDS011;52872;52.994;6.940;2023-02-15T01:13:50;21.02;;;18.63;;
66087;SDS011;52872;52.994;6.940;2023-02-15T01:16:19;20.60;;;18.40;;
66087;SDS011;52872;52.994;6.940;2023-02-15T01:18:47;20.42;;;18.35;;
66087;SDS011;52872;52.994;6.940;2023-02-15T01:21:19;24.38;;;20.30;;
66087;SDS011;52872;52.994;6.940;2023-02-15T01:23:47;22.10;;;18.70;;
66087;SDS011;52872;52.994;6.940;2023-02-15T01:26:15;22.73;;;19.08;;
66087;SDS011;52872;52.994;6.940;2023-02-15T01:28:45;20.92;;;17.90;;
66087;SDS011;52872;52.994;6.940;2023-02-15T01:31:14;22.55;;;19.80;;
66087;SDS011;52872;52.994;6.940;2023-02-15T01:33:44;22.40;;;19.17;;
66087;SDS011;52872;52.994;6.940;2023-02-15T01:36:11;22.02;;;19.20;;
66087;SDS011;52872;52.994;6.940;2023-02-15T01:38:38;23.15;;;18.92;;
66087;SDS011;52872;52.994;6.940;2023-02-15T01:41:08;24.40;;;19.95;;
66087;SDS011;52872;52.994;6.940;2023-02-15T01:47:40;22.95;;;20.25;;
66087;SDS011;52872;52.994;6.940;2023-02-15T01:53:05;35.03;;;24.85;;
66087;SDS011;52872;52.994;6.940;2023-02-15T01:55:40;30.00;;;22.45;;
66087;SDS011;52872;52.994;6.940;2023-02-15T01:58:13;36.60;;;24.40;;
66087;SDS011;52872;52.994;6.940;2023-02-15T02:00:41;73.07;;;40.63;;
66087;SDS011;52872;52.994;6.940;2023-02-15T02:03:09;50.80;;;31.77;;
66087;SDS011;52872;52.994;6.940;2023-02-15T02:05:37;38.25;;;26.50;;
66087;SDS011;52872;52.994;6.940;2023-02-15T02:08:05;28.88;;;22.92;;
66087;SDS011;52872;52.994;6.940;2023-02-15T02:10:36;27.27;;;21.20;;
66087;SDS011;52872;52.994;6.940;2023-02-15T02:13:03;30.45;;;23.48;;
66087;SDS011;52872;52.994;6.940;2023-02-15T02:15:40;26.15;;;21.70;;
66087;SDS011;52872;52.994;6.940;2023-02-15T02:20:56;26.70;;;21.73;;
66087;SDS011;52872;52.994;6.940;2023-02-15T02:34:21;32.35;;;23.67;;
66087;SDS011;52872;52.994;6.940;2023-02-15T02:42:40;32.83;;;23.48;;
66087;SDS011;52872;52.994;6.940;2023-02-15T02:47:51;28.13;;;21.25;;
66087;SDS011;52872;52.994;6.940;2023-02-15T02:50:28;30.05;;;23.17;;
66087;SDS011;52872;52.994;6.940;2023-02-15T02:52:57;32.80;;;24.45;;
66087;SDS011;52872;52.994;6.940;2023-02-15T02:56:09;30.67;;;22.90;;
66087;SDS011;52872;52.994;6.940;2023-02-15T03:01:01;31.65;;;22.95;;
66087;SDS011;52872;52.994;6.940;2023-02-15T03:06:18;36.40;;;23.55;;
66087;SDS011;52872;52.994;6.940;2023-02-15T03:08:56;33.03;;;23.60;;
66087;SDS011;52872;52.994;6.940;2023-02-15T03:11:28;39.90;;;26.42;;
66087;SDS011;52872;52.994;6.940;2023-02-15T03:13:56;42.75;;;26.65;;
66087;SDS011;52872;52.994;6.940;2023-02-15T03:16:24;46.47;;;28.48;;
66087;SDS011;52872;52.994;6.940;2023-02-15T03:18:55;45.45;;;27.90;;
66087;SDS011;52872;52.994;6.940;2023-02-15T03:21:45;53.58;;;28.10;;
66087;SDS011;52872;52.994;6.940;2023-02-15T03:24:36;55.80;;;30.67;;
66087;SDS011;52872;52.994;6.940;2023-02-15T03:27:17;68.28;;;31.05;;
66087;SDS011;52872;52.994;6.940;2023-02-15T03:29:50;128.87;;;35.77;;
66087;SDS011;52872;52.994;6.940;2023-02-15T03:32:21;104.97;;;31.92;;
66087;SDS011;52872;52.994;6.940;2023-02-15T03:34:51;112.80;;;33.20;;
66087;SDS011;52872;52.994;6.940;2023-02-15T03:43:00;115.88;;;47.58;;
66087;SDS011;52872;52.994;6.940;2023-02-15T03:45:48;68.32;;;35.38;;
66087;SDS011;52872;52.994;6.940;2023-02-15T03:48:29;61.95;;;31.27;;
66087;SDS011;52872;52.994;6.940;2023-02-15T03:51:20;51.58;;;32.20;;
66087;SDS011;52872;52.994;6.940;2023-02-15T03:54:07;56.17;;;33.33;;
66087;SDS011;52872;52.994;6.940;2023-02-15T03:59:06;98.28;;;36.38;;
66087;SDS011;52872;52.994;6.940;2023-02-15T04:01:59;78.43;;;37.60;;
66087;SDS011;52872;52.994;6.940;2023-02-15T04:04:41;70.65;;;35.60;;
66087;SDS011;52872;52.994;6.940;2023-02-15T04:07:11;67.10;;;36.50;;
66087;SDS011;52872;52.994;6.940;2023-02-15T04:09:38;76.18;;;38.90;;
66087;SDS011;52872;52.994;6.940;2023-02-15T04:12:24;71.57;;;37.67;;
66087;SDS011;52872;52.994;6.940;2023-02-15T04:14:50;58.42;;;33.90;;
66087;SDS011;52872;52.994;6.940;2023-02-15T04:17:36;63.08;;;37.38;;
66087;SDS011;52872;52.994;6.940;2023-02-15T04:20:04;62.47;;;34.38;;
66087;SDS011;52872;52.994;6.940;2023-02-15T04:22:49;68.28;;;35.85;;
66087;SDS011;52872;52.994;6.940;2023-02-15T04:25:35;63.38;;;35.40;;
66087;SDS011;52872;52.994;6.940;2023-02-15T04:28:02;65.20;;;36.25;;
66087;SDS011;52872;52.994;6.940;2023-02-15T04:30:29;66.78;;;37.25;;
66087;SDS011;52872;52.994;6.940;2023-02-15T04:32:56;61.70;;;35.45;;
66087;SDS011;52872;52.994;6.940;2023-02-15T04:35:23;68.57;;;38.65;;
66087;SDS011;52872;52.994;6.940;2023-02-15T04:37:51;59.55;;;33.63;;
66087;SDS011;52872;52.994;6.940;2023-02-15T04:40:19;55.90;;;33.55;;
66087;SDS011;52872;52.994;6.940;2023-02-15T04:42:49;73.47;;;40.15;;
66087;SDS011;52872;52.994;6.940;2023-02-15T04:45:16;70.55;;;39.00;;
66087;SDS011;52872;52.994;6.940;2023-02-15T04:47:43;71.43;;;38.83;;
66087;SDS011;52872;52.994;6.940;2023-02-15T04:50:11;83.43;;;41.50;;
66087;SDS011;52872;52.994;6.940;2023-02-15T04:52:38;79.97;;;40.00;;
66087;SDS011;52872;52.994;6.940;2023-02-15T04:55:05;74.70;;;40.63;;
66087;SDS011;52872;52.994;6.940;2023-02-15T04:57:33;71.00;;;38.17;;
66087;SDS011;52872;52.994;6.940;2023-02-15T05:00:00;83.95;;;42.35;;
66087;SDS011;52872;52.994;6.940;2023-02-15T05:02:27;73.07;;;38.63;;
66087;SDS011;52872;52.994;6.940;2023-02-15T05:04:54;76.88;;;42.15;;
66087;SDS011;52872;52.994;6.940;2023-02-15T05:07:21;83.40;;;43.17;;
66087;SDS011;52872;52.994;6.940;2023-02-15T05:09:48;89.35;;;43.88;;
66087;SDS011;52872;52.994;6.940;2023-02-15T05:12:15;77.47;;;41.50;;
66087;SDS011;52872;52.994;6.940;2023-02-15T05:14:42;87.95;;;41.80;;
66087;SDS011;52872;52.994;6.940;2023-02-15T05:17:09;83.68;;;41.97;;
66087;SDS011;52872;52.994;6.940;2023-02-15T05:19:36;76.25;;;41.33;;
66087;SDS011;52872;52.994;6.940;2023-02-15T05:22:02;83.05;;;42.50;;
66087;SDS011;52872;52.994;6.940;2023-02-15T05:24:30;81.30;;;40.67;;
66087;SDS011;52872;52.994;6.940;2023-02-15T05:27:15;80.05;;;42.50;;
66087;SDS011;52872;52.994;6.940;2023-02-15T05:30:01;92.13;;;45.13;;
66087;SDS011;52872;52.994;6.940;2023-02-15T05:32:28;77.10;;;41.97;;
66087;SDS011;52872;52.994;6.940;2023-02-15T05:34:55;81.05;;;41.83;;
66087;SDS011;52872;52.994;6.940;2023-02-15T05:37:22;85.07;;;42.28;;
66087;SDS011;52872;52.994;6.940;2023-02-15T05:39:49;75.97;;;40.78;;
66087;SDS011;52872;52.994;6.940;2023-02-15T05:42:16;74.25;;;39.95;;
66087;SDS011;52872;52.994;6.940;2023-02-15T05:44:43;79.72;;;40.67;;
66087;SDS011;52872;52.994;6.940;2023-02-15T05:47:10;78.82;;;42.70;;
66087;SDS011;52872;52.994;6.940;2023-02-15T05:49:37;85.95;;;41.30;;
66087;SDS011;52872;52.994;6.940;2023-02-15T05:52:04;75.00;;;40.10;;
66087;SDS011;52872;52.994;6.940;2023-02-15T05:54:31;69.32;;;38.10;;
66087;SDS011;52872;52.994;6.940;2023-02-15T05:56:58;70.53;;;38.20;;
66087;SDS011;52872;52.994;6.940;2023-02-15T05:59:25;63.28;;;37.67;;
66087;SDS011;52872;52.994;6.940;2023-02-15T06:01:52;64.22;;;36.08;;
66087;SDS011;52872;52.994;6.940;2023-02-15T06:04:19;69.90;;;38.60;;
66087;SDS011;52872;52.994;6.940;2023-02-15T06:06:46;66.13;;;36.95;;
66087;SDS011;52872;52.994;6.940;2023-02-15T06:09:13;66.22;;;37.65;;
66087;SDS011;52872;52.994;6.940;2023-02-15T06:11:40;63.45;;;36.88;;
66087;SDS011;52872;52.994;6.940;2023-02-15T06:14:07;62.85;;;35.20;;
66087;SDS011;52872;52.994;6.940;2023-02-15T06:16:34;70.93;;;37.88;;
66087;SDS011;52872;52.994;6.940;2023-02-15T06:19:02;63.10;;;35.78;;
66087;SDS011;52872;52.994;6.940;2023-02-15T06:21:29;70.93;;;37.30;;
66087;SDS011;52872;52.994;6.940;2023-02-15T06:23:57;64.18;;;35.90;;
66087;SDS011;52872;52.994;6.940;2023-02-15T06:26:24;69.22;;;37.88;;
66087;SDS011;52872;52.994;6.940;2023-02-15T06:28:51;65.18;;;37.88;;
66087;SDS011;52872;52.994;6.940;2023-02-15T06:31:18;68.45;;;36.90;;
66087;SDS011;52872;52.994;6.940;2023-02-15T06:33:45;71.88;;;37.00;;
66087;SDS011;52872;52.994;6.940;2023-02-15T06:36:12;67.72;;;37.05;;
66087;SDS011;52872;52.994;6.940;2023-02-15T06:38:39;70.35;;;38.13;;
66087;SDS011;52872;52.994;6.940;2023-02-15T06:41:06;67.05;;;36.60;;
66087;SDS011;52872;52.994;6.940;2023-02-15T06:43:33;66.43;;;35.20;;
66087;SDS011;52872;52.994;6.940;2023-02-15T06:46:00;64.07;;;36.53;;
66087;SDS011;52872;52.994;6.940;2023-02-15T06:48:28;73.90;;;39.47;;
66087;SDS011;52872;52.994;6.940;2023-02-15T06:50:55;71.10;;;39.92;;
66087;SDS011;52872;52.994;6.940;2023-02-15T06:53:22;75.20;;;39.83;;
66087;SDS011;52872;52.994;6.940;2023-02-15T06:55:49;72.72;;;39.78;;
66087;SDS011;52872;52.994;6.940;2023-02-15T06:58:16;73.45;;;37.67;;
66087;SDS011;52872;52.994;6.940;2023-02-15T07:00:43;70.05;;;37.75;;
66087;SDS011;52872;52.994;6.940;2023-02-15T07:03:12;71.30;;;37.47;;
66087;SDS011;52872;52.994;6.940;2023-02-15T07:05:40;62.38;;;35.60;;
66087;SDS011;52872;52.994;6.940;2023-02-15T07:08:07;73.32;;;37.67;;
66087;SDS011;52872;52.994;6.940;2023-02-15T07:10:35;70.03;;;38.25;;
66087;SDS011;52872;52.994;6.940;2023-02-15T07:13:02;73.25;;;38.50;;
66087;SDS011;52872;52.994;6.940;2023-02-15T07:15:29;62.20;;;36.20;;
66087;SDS011;52872;52.994;6.940;2023-02-15T07:17:56;63.05;;;36.33;;
66087;SDS011;52872;52.994;6.940;2023-02-15T07:20:24;73.07;;;36.95;;
66087;SDS011;52872;52.994;6.940;2023-02-15T07:22:51;67.57;;;36.22;;
66087;SDS011;52872;52.994;6.940;2023-02-15T07:25:18;60.80;;;35.05;;
66087;SDS011;52872;52.994;6.940;2023-02-15T07:27:46;64.30;;;34.30;;
66087;SDS011;52872;52.994;6.940;2023-02-15T07:30:15;61.90;;;35.67;;
66087;SDS011;52872;52.994;6.940;2023-02-15T07:32:43;56.83;;;33.60;;
66087;SDS011;52872;52.994;6.940;2023-02-15T07:35:31;51.38;;;33.42;;
66087;SDS011;52872;52.994;6.940;2023-02-15T07:37:59;49.70;;;30.23;;
66087;SDS011;52872;52.994;6.940;2023-02-15T07:40:26;48.25;;;29.77;;
66087;SDS011;52872;52.994;6.940;2023-02-15T07:42:57;51.53;;;31.35;;
66087;SDS011;52872;52.994;6.940;2023-02-15T07:45:25;45.40;;;31.15;;
66087;SDS011;52872;52.994;6.940;2023-02-15T07:47:53;41.88;;;27.77;;
66087;SDS011;52872;52.994;6.940;2023-02-15T07:50:20;41.22;;;27.95;;
66087;SDS011;52872;52.994;6.940;2023-02-15T07:52:47;38.78;;;26.23;;
66087;SDS011;52872;52.994;6.940;2023-02-15T07:55:14;45.40;;;28.33;;
66087;SDS011;52872;52.994;6.940;2023-02-15T07:57:42;41.85;;;27.85;;
66087;SDS011;52872;52.994;6.940;2023-02-15T08:00:11;41.53;;;26.25;;
66087;SDS011;52872;52.994;6.940;2023-02-15T08:02:39;38.08;;;25.80;;
66087;SDS011;52872;52.994;6.940;2023-02-15T08:05:07;40.75;;;27.63;;
66087;SDS011;52872;52.994;6.940;2023-02-15T08:07:34;40.78;;;26.33;;
66087;SDS011;52872;52.994;6.940;2023-02-15T08:10:01;37.15;;;25.85;;
66087;SDS011;52872;52.994;6.940;2023-02-15T08:12:28;40.60;;;27.35;;
66087;SDS011;52872;52.994;6.940;2023-02-15T08:14:55;37.78;;;24.52;;
66087;SDS011;52872;52.994;6.940;2023-02-15T08:17:22;37.78;;;26.88;;
66087;SDS011;52872;52.994;6.940;2023-02-15T08:19:50;41.50;;;25.48;;
66087;SDS011;52872;52.994;6.940;2023-02-15T08:22:17;34.03;;;23.92;;
66087;SDS011;52872;52.994;6.940;2023-02-15T08:24:44;36.60;;;24.25;;
66087;SDS011;52872;52.994;6.940;2023-02-15T08:27:11;35.03;;;24.38;;
66087;SDS011;52872;52.994;6.940;2023-02-15T08:29:38;39.38;;;25.38;;
66087;SDS011;52872;52.994;6.940;2023-02-15T08:32:07;41.38;;;26.73;;
66087;SDS011;52872;52.994;6.940;2023-02-15T08:34:37;37.50;;;25.85;;
66087;SDS011;52872;52.994;6.940;2023-02-15T08:37:06;40.75;;;26.58;;
66087;SDS011;52872;52.994;6.940;2023-02-15T08:39:33;41.90;;;27.90;;
66087;SDS011;52872;52.994;6.940;2023-02-15T08:42:01;40.10;;;26.55;;
66087;SDS011;52872;52.994;6.940;2023-02-15T08:44:28;41.83;;;27.20;;
66087;SDS011;52872;52.994;6.940;2023-02-15T08:46:55;42.90;;;27.45;;
66087;SDS011;52872;52.994;6.940;2023-02-15T08:49:28;42.97;;;26.80;;
66087;SDS011;52872;52.994;6.940;2023-02-15T08:51:55;41.42;;;27.38;;
66087;SDS011;52872;52.994;6.940;2023-02-15T08:54:22;40.30;;;27.65;;
66087;SDS011;52872;52.994;6.940;2023-02-15T08:56:50;37.97;;;27.40;;
66087;SDS011;52872;52.994;6.940;2023-02-15T08:59:20;39.72;;;26.85;;
66087;SDS011;52872;52.994;6.940;2023-02-15T09:01:49;40.85;;;26.98;;
66087;SDS011;52872;52.994;6.940;2023-02-15T09:04:18;42.95;;;26.38;;
66087;SDS011;52872;52.994;6.940;2023-02-15T09:06:47;40.78;;;26.10;;
66087;SDS011;52872;52.994;6.940;2023-02-15T09:09:19;41.90;;;26.13;;
66087;SDS011;52872;52.994;6.940;2023-02-15T09:11:47;41.30;;;27.42;;
66087;SDS011;52872;52.994;6.940;2023-02-15T09:14:20;42.65;;;27.58;;
66087;SDS011;52872;52.994;6.940;2023-02-15T09:16:48;43.38;;;27.65;;
66087;SDS011;52872;52.994;6.940;2023-02-15T09:19:18;40.72;;;27.67;;
66087;SDS011;52872;52.994;6.940;2023-02-15T09:21:46;43.17;;;27.67;;
66087;SDS011;52872;52.994;6.940;2023-02-15T09:24:15;41.05;;;27.30;;
66087;SDS011;52872;52.994;6.940;2023-02-15T09:26:46;41.00;;;27.65;;
66087;SDS011;52872;52.994;6.940;2023-02-15T09:29:15;39.97;;;27.70;;
66087;SDS011;52872;52.994;6.940;2023-02-15T09:31:44;40.78;;;27.02;;
66087;SDS011;52872;52.994;6.940;2023-02-15T09:34:13;38.67;;;26.55;;
66087;SDS011;52872;52.994;6.940;2023-02-15T09:36:44;40.20;;;27.77;;
66087;SDS011;52872;52.994;6.940;2023-02-15T10:28:16;42.53;;;27.95;;
66087;SDS011;52872;52.994;6.940;2023-02-15T10:30:51;39.17;;;27.85;;
66087;SDS011;52872;52.994;6.940;2023-02-15T10:33:40;41.83;;;28.83;;
66087;SDS011;52872;52.994;6.940;2023-02-15T10:42:11;40.60;;;28.50;;
66087;SDS011;52872;52.994;6.940;2023-02-15T10:47:49;44.22;;;30.00;;
66087;SDS011;52872;52.994;6.940;2023-02-15T11:01:55;41.97;;;29.63;;
66087;SDS011;52872;52.994;6.940;2023-02-15T11:07:02;41.22;;;29.42;;
66087;SDS011;52872;52.994;6.940;2023-02-15T11:09:42;42.45;;;30.83;;
66087;SDS011;52872;52.994;6.940;2023-02-15T11:12:15;42.67;;;29.70;;
66087;SDS011;52872;52.994;6.940;2023-02-15T11:14:47;44.33;;;30.73;;
66087;SDS011;52872;52.994;6.940;2023-02-15T11:17:37;40.22;;;29.17;;
66087;SDS011;52872;52.994;6.940;2023-02-15T11:20:29;41.90;;;30.30;;
66087;SDS011;52872;52.994;6.940;2023-02-15T11:22:58;43.85;;;31.20;;
66087;SDS011;52872;52.994;6.940;2023-02-15T11:25:30;42.80;;;29.08;;
66087;SDS011;52872;52.994;6.940;2023-02-15T11:27:59;41.28;;;29.85;;
66087;SDS011;52872;52.994;6.940;2023-02-15T11:30:51;42.45;;;29.90;;
66087;SDS011;52872;52.994;6.940;2023-02-15T11:33:24;40.42;;;28.85;;
66087;SDS011;52872;52.994;6.940;2023-02-15T11:36:03;43.97;;;30.95;;
66087;SDS011;52872;52.994;6.940;2023-02-15T11:38:32;42.55;;;28.52;;
66087;SDS011;52872;52.994;6.940;2023-02-15T11:41:05;40.00;;;29.98;;
66087;SDS011;52872;52.994;6.940;2023-02-15T11:46:05;38.90;;;29.08;;
66087;SDS011;52872;52.994;6.940;2023-02-15T11:48:37;37.40;;;28.00;;
66087;SDS011;52872;52.994;6.940;2023-02-15T11:51:05;43.13;;;29.20;;
66087;SDS011;52872;52.994;6.940;2023-02-15T11:53:36;38.92;;;28.35;;
66087;SDS011;52872;52.994;6.940;2023-02-15T11:56:10;41.95;;;29.38;;
66087;SDS011;52872;52.994;6.940;2023-02-15T12:06:37;40.30;;;29.98;;
66087;SDS011;52872;52.994;6.940;2023-02-15T12:11:55;41.55;;;28.00;;
66087;SDS011;52872;52.994;6.940;2023-02-15T12:14:54;41.25;;;28.10;;
66087;SDS011;52872;52.994;6.940;2023-02-15T12:17:29;38.33;;;27.92;;
66087;SDS011;52872;52.994;6.940;2023-02-15T12:20:03;39.92;;;28.23;;
66087;SDS011;52872;52.994;6.940;2023-02-15T12:22:55;41.75;;;27.65;;
66087;SDS011;52872;52.994;6.940;2023-02-15T12:25:42;42.63;;;28.02;;
66087;SDS011;52872;52.994;6.940;2023-02-15T12:30:53;40.75;;;28.60;;
66087;SDS011;52872;52.994;6.940;2023-02-15T12:35:56;39.75;;;28.13;;
66087;SDS011;52872;52.994;6.940;2023-02-15T12:38:30;41.88;;;27.10;;
66087;SDS011;52872;52.994;6.940;2023-02-15T12:40:58;43.50;;;29.33;;
66087;SDS011;52872;52.994;6.940;2023-02-15T12:43:31;43.97;;;28.60;;
66087;SDS011;52872;52.994;6.940;2023-02-15T12:46:20;40.67;;;29.48;;
66087;SDS011;52872;52.994;6.940;2023-02-15T12:49:05;40.15;;;28.80;;
66087;SDS011;52872;52.994;6.940;2023-02-15T12:56:49;45.13;;;29.52;;
66087;SDS011;52872;52.994;6.940;2023-02-15T12:59:16;41.92;;;29.40;;
66087;SDS011;52872;52.994;6.940;2023-02-15T13:01:48;42.50;;;29.38;;
66087;SDS011;52872;52.994;6.940;2023-02-15T13:06:50;44.65;;;29.88;;
66087;SDS011;52872;52.994;6.940;2023-02-15T13:12:14;38.88;;;27.83;;
66087;SDS011;52872;52.994;6.940;2023-02-15T13:14:54;41.80;;;29.27;;
66087;SDS011;52872;52.994;6.940;2023-02-15T13:17:30;39.85;;;28.75;;
66087;SDS011;52872;52.994;6.940;2023-02-15T13:20:09;40.90;;;28.50;;
66087;SDS011;52872;52.994;6.940;2023-02-15T13:22:45;41.80;;;28.90;;
66087;SDS011;52872;52.994;6.940;2023-02-15T13:27:46;42.78;;;27.25;;
66087;SDS011;52872;52.994;6.940;2023-02-15T13:30:19;39.13;;;27.25;;
66087;SDS011;52872;52.994;6.940;2023-02-15T13:33:03;39.10;;;26.33;;
66087;SDS011;52872;52.994;6.940;2023-02-15T13:35:44;36.47;;;25.80;;
66087;SDS011;52872;52.994;6.940;2023-02-15T13:38:22;39.92;;;25.65;;
66087;SDS011;52872;52.994;6.940;2023-02-15T13:41:01;36.03;;;25.30;;
66087;SDS011;52872;52.994;6.940;2023-02-15T13:43:50;41.08;;;25.95;;
66087;SDS011;52872;52.994;6.940;2023-02-15T13:49:29;39.83;;;26.08;;
66087;SDS011;52872;52.994;6.940;2023-02-15T14:01:16;37.75;;;23.92;;
66087;SDS011;52872;52.994;6.940;2023-02-15T14:07:14;34.40;;;25.00;;
66087;SDS011;52872;52.994;6.940;2023-02-15T14:23:43;35.13;;;23.38;;
66087;SDS011;52872;52.994;6.940;2023-02-15T14:26:53;38.67;;;25.58;;
66087;SDS011;52872;52.994;6.940;2023-02-15T14:30:14;40.90;;;24.48;;
66087;SDS011;52872;52.994;6.940;2023-02-15T14:35:17;37.83;;;25.67;;
66087;SDS011;52872;52.994;6.940;2023-02-15T14:37:49;36.35;;;23.67;;
66087;SDS011;52872;52.994;6.940;2023-02-15T14:47:06;37.60;;;24.30;;
66087;SDS011;52872;52.994;6.940;2023-02-15T14:49:43;38.80;;;25.40;;
66087;SDS011;52872;52.994;6.940;2023-02-15T14:52:11;38.65;;;25.08;;
66087;SDS011;52872;52.994;6.940;2023-02-15T15:02:39;36.60;;;24.67;;
66087;SDS011;52872;52.994;6.940;2023-02-15T15:07:55;40.33;;;24.23;;
66087;SDS011;52872;52.994;6.940;2023-02-15T15:10:41;35.42;;;24.15;;
66087;SDS011;52872;52.994;6.940;2023-02-15T15:15:56;40.28;;;25.02;;
66087;SDS011;52872;52.994;6.940;2023-02-15T15:18:50;39.42;;;25.60;;
66087;SDS011;52872;52.994;6.940;2023-02-15T15:49:28;38.67;;;24.95;;
66087;SDS011;52872;52.994;6.940;2023-02-15T15:52:03;37.80;;;24.80;;
66087;SDS011;52872;52.994;6.940;2023-02-15T15:54:40;37.40;;;25.33;;
66087;SDS011;52872;52.994;6.940;2023-02-15T15:59:53;38.22;;;25.85;;
66087;SDS011;52872;52.994;6.940;2023-02-15T16:02:21;37.47;;;24.15;;
66087;SDS011;52872;52.994;6.940;2023-02-15T16:04:50;41.60;;;26.42;;
66087;SDS011;52872;52.994;6.940;2023-02-15T16:09:54;40.22;;;25.52;;
66087;SDS011;52872;52.994;6.940;2023-02-15T16:12:32;37.22;;;25.75;;
66087;SDS011;52872;52.994;6.940;2023-02-15T16:15:02;32.83;;;23.33;;
66087;SDS011;52872;52.994;6.940;2023-02-15T16:17:41;36.47;;;24.35;;
66087;SDS011;52872;52.994;6.940;2023-02-15T16:20:14;34.42;;;23.65;;
66087;SDS011;52872;52.994;6.940;2023-02-15T16:22:49;37.53;;;25.35;;
66087;SDS011;52872;52.994;6.940;2023-02-15T16:28:30;38.80;;;22.95;;
66087;SDS011;52872;52.994;6.940;2023-02-15T16:31:07;37.92;;;23.35;;
66087;SDS011;52872;52.994;6.940;2023-02-15T16:33:40;42.13;;;23.75;;
66087;SDS011;52872;52.994;6.940;2023-02-15T16:36:20;37.17;;;23.40;;
66087;SDS011;52872;52.994;6.940;2023-02-15T16:41:23;39.28;;;24.00;;
66087;SDS011;52872;52.994;6.940;2023-02-15T16:43:54;34.40;;;23.55;;
66087;SDS011;52872;52.994;6.940;2023-02-15T16:46:27;34.78;;;23.40;;
66087;SDS011;52872;52.994;6.940;2023-02-15T16:48:56;38.03;;;24.98;;
66087;SDS011;52872;52.994;6.940;2023-02-15T16:53:58;37.40;;;22.80;;
66087;SDS011;52872;52.994;6.940;2023-02-15T16:56:31;37.55;;;23.85;;
66087;SDS011;52872;52.994;6.940;2023-02-15T16:58:59;41.78;;;24.50;;
66087;SDS011;52872;52.994;6.940;2023-02-15T17:01:28;39.03;;;25.10;;
66087;SDS011;52872;52.994;6.940;2023-02-15T17:04:13;33.67;;;22.70;;
66087;SDS011;52872;52.994;6.940;2023-02-15T17:07:06;36.00;;;23.80;;
66087;SDS011;52872;52.994;6.940;2023-02-15T17:09:52;38.27;;;23.13;;
66087;SDS011;52872;52.994;6.940;2023-02-15T17:18:16;40.00;;;23.85;;
66087;SDS011;52872;52.994;6.940;2023-02-15T17:20:46;37.55;;;23.73;;
66087;SDS011;52872;52.994;6.940;2023-02-15T17:23:22;41.50;;;25.15;;
66087;SDS011;52872;52.994;6.940;2023-02-15T17:26:01;42.20;;;26.85;;
66087;SDS011;52872;52.994;6.940;2023-02-15T17:28:38;42.92;;;24.33;;
66087;SDS011;52872;52.994;6.940;2023-02-15T17:31:13;42.28;;;25.58;;
66087;SDS011;52872;52.994;6.940;2023-02-15T17:33:42;42.58;;;25.30;;
66087;SDS011;52872;52.994;6.940;2023-02-15T17:36:14;38.00;;;24.60;;
66087;SDS011;52872;52.994;6.940;2023-02-15T17:41:27;39.75;;;26.00;;
66087;SDS011;52872;52.994;6.940;2023-02-15T17:43:55;40.88;;;26.17;;
66087;SDS011;52872;52.994;6.940;2023-02-15T17:46:23;39.15;;;24.23;;
66087;SDS011;52872;52.994;6.940;2023-02-15T17:48:52;41.95;;;25.52;;
66087;SDS011;52872;52.994;6.940;2023-02-15T17:51:21;44.67;;;25.88;;
66087;SDS011;52872;52.994;6.940;2023-02-15T17:53:49;43.42;;;26.17;;
66087;SDS011;52872;52.994;6.940;2023-02-15T17:56:35;46.05;;;26.17;;
66087;SDS011;52872;52.994;6.940;2023-02-15T17:59:04;42.22;;;24.65;;
66087;SDS011;52872;52.994;6.940;2023-02-15T18:01:36;42.17;;;25.70;;
66087;SDS011;52872;52.994;6.940;2023-02-15T18:04:28;37.58;;;24.52;;
66087;SDS011;52872;52.994;6.940;2023-02-15T18:07:16;40.92;;;24.95;;
66087;SDS011;52872;52.994;6.940;2023-02-15T18:10:11;41.40;;;26.15;;
66087;SDS011;52872;52.994;6.940;2023-02-15T18:12:58;43.42;;;26.67;;
66087;SDS011;52872;52.994;6.940;2023-02-15T18:15:25;42.15;;;25.88;;
66087;SDS011;52872;52.994;6.940;2023-02-15T18:17:53;41.88;;;27.08;;
66087;SDS011;52872;52.994;6.940;2023-02-15T18:20:25;39.70;;;24.77;;
66087;SDS011;52872;52.994;6.940;2023-02-15T18:22:56;43.95;;;27.40;;
66087;SDS011;52872;52.994;6.940;2023-02-15T18:25:23;44.17;;;27.77;;
66087;SDS011;52872;52.994;6.940;2023-02-15T18:27:51;38.55;;;26.40;;
66087;SDS011;52872;52.994;6.940;2023-02-15T18:30:21;41.45;;;26.73;;
66087;SDS011;52872;52.994;6.940;2023-02-15T18:32:50;42.15;;;25.65;;
66087;SDS011;52872;52.994;6.940;2023-02-15T18:35:19;43.80;;;26.38;;
66087;SDS011;52872;52.994;6.940;2023-02-15T18:37:49;43.47;;;27.42;;
66087;SDS011;52872;52.994;6.940;2023-02-15T18:40:21;41.40;;;27.17;;
66087;SDS011;52872;52.994;6.940;2023-02-15T18:42:52;44.20;;;27.50;;
66087;SDS011;52872;52.994;6.940;2023-02-15T18:45:26;43.05;;;26.50;;
66087;SDS011;52872;52.994;6.940;2023-02-15T18:47:58;41.15;;;26.17;;
66087;SDS011;52872;52.994;6.940;2023-02-15T18:50:26;45.85;;;27.60;;
66087;SDS011;52872;52.994;6.940;2023-02-15T18:52:58;45.17;;;29.00;;
66087;SDS011;52872;52.994;6.940;2023-02-15T18:55:25;47.85;;;28.95;;
66087;SDS011;52872;52.994;6.940;2023-02-15T18:57:54;46.72;;;28.38;;
66087;SDS011;52872;52.994;6.940;2023-02-15T19:00:23;43.13;;;28.88;;